Time;durP1;ratioP1;P1;durP2;ratioP2;P2;SDS_P1;SDS_P2;PMS_P1;PMS_P2;Temp;Humidity;BMP_temperature;BMP_pressure;BME280_temperature;BME280_humidity;BME280_pressure;Samples;Min_cycle;Max_cycle;Signal;HPM_P1;HPM_P2
2022/03/19 00:21:38;;;;;;;13.23;8.90;;;;;;;;;;4392349;29;20193;-73
2022/03/19 00:24:05;;;;;;;13.80;10.70;;;;;;;;;;4131411;34;20185;-73
2022/03/19 00:26:33;;;;;;;13.90;10.10;;;;;;;;;;4136434;34;20114;-73
2022/03/19 00:28:59;;;;;;;21.27;10.23;;;;;;;;;;4136141;34;20103;-73
2022/03/19 00:31:25;;;;;;;16.05;10.32;;;;;;;;;;4136233;34;20107;-71
2022/03/19 00:33:51;;;;;;;12.82;9.88;;;;;;;;;;4112819;34;20472;-73
2022/03/19 00:36:17;;;;;;;15.68;10.43;;;;;;;;;;4123968;34;20112;-73
2022/03/19 00:38:43;;;;;;;15.70;10.80;;;;;;;;;;4123908;34;20639;-70
2022/03/19 00:41:09;;;;;;;14.45;10.65;;;;;;;;;;4123910;34;20468;-76
2022/03/19 00:43:36;;;;;;;16.25;11.90;;;;;;;;;;4124027;34;20642;-73
2022/03/19 00:46:02;;;;;;;16.10;10.95;;;;;;;;;;4136927;34;20488;-74
2022/03/19 00:48:28;;;;;;;17.02;10.55;;;;;;;;;;4136414;34;20100;-74
2022/03/19 00:50:55;;;;;;;14.25;10.95;;;;;;;;;;4124067;34;20116;-73
2022/03/19 00:53:21;;;;;;;16.77;11.57;;;;;;;;;;4124050;34;20111;-70
2022/03/19 00:55:47;;;;;;;15.40;11.07;;;;;;;;;;4136644;34;20561;-70
2022/03/19 00:58:13;;;;;;;18.55;11.63;;;;;;;;;;4136908;34;20202;-70
2022/03/19 01:00:39;;;;;;;16.42;11.85;;;;;;;;;;4124014;34;20091;-70
2022/03/19 01:03:06;;;;;;;16.70;11.15;;;;;;;;;;4123650;34;20520;-70
2022/03/19 01:05:32;;;;;;;15.88;11.57;;;;;;;;;;4136159;34;20119;-70
2022/03/19 01:07:58;;;;;;;14.87;12.00;;;;;;;;;;4136297;34;20096;-70
2022/03/19 01:10:28;;;;;;;16.73;12.15;;;;;;;;;;4112669;34;20110;-71
2022/03/19 01:12:55;;;;;;;16.58;12.27;;;;;;;;;;4123719;34;20130;-70
2022/03/19 01:15:22;;;;;;;14.55;10.90;;;;;;;;;;4136022;34;20190;-71
2022/03/19 01:17:48;;;;;;;19.50;11.52;;;;;;;;;;4136640;34;20091;-71
2022/03/19 01:20:15;;;;;;;15.07;11.65;;;;;;;;;;4136124;34;20099;-71
2022/03/19 01:22:43;;;;;;;14.77;11.68;;;;;;;;;;4135695;34;20126;-72
2022/03/19 01:25:10;;;;;;;17.42;11.57;;;;;;;;;;4123323;34;20129;-71
2022/03/19 01:27:38;;;;;;;15.93;11.95;;;;;;;;;;4123505;34;20539;-71
2022/03/19 01:30:06;;;;;;;19.55;11.35;;;;;;;;;;4123328;34;20127;-71
2022/03/19 01:32:33;;;;;;;13.23;11.20;;;;;;;;;;4135772;34;20156;-69
2022/03/19 01:34:59;;;;;;;14.18;11.12;;;;;;;;;;4135812;34;20190;-71
2022/03/19 01:37:25;;;;;;;16.17;11.38;;;;;;;;;;4123445;34;20095;-70
2022/03/19 01:39:55;;;;;;;16.37;10.82;;;;;;;;;;4123533;34;20135;-75
2022/03/19 01:42:31;;;;;;;19.70;11.23;;;;;;;;;;4125473;34;20139;-74
2022/03/19 01:44:58;;;;;;;17.85;12.55;;;;;;;;;;4138015;34;20107;-75
2022/03/19 01:47:26;;;;;;;17.12;11.52;;;;;;;;;;4125379;34;20179;-74
2022/03/19 01:49:51;;;;;;;21.20;11.70;;;;;;;;;;4137826;34;20122;-75
2022/03/19 01:52:18;;;;;;;16.27;11.18;;;;;;;;;;4114491;34;20464;-75
2022/03/19 01:54:46;;;;;;;16.55;11.27;;;;;;;;;;4125249;34;20126;-75
2022/03/19 01:57:18;;;;;;;15.82;11.95;;;;;;;;;;4124984;34;20112;-75
2022/03/19 01:59:44;;;;;;;17.55;11.77;;;;;;;;;;4125255;34;20111;-75
2022/03/19 02:02:11;;;;;;;16.75;12.02;;;;;;;;;;4124992;34;20138;-75
2022/03/19 02:04:38;;;;;;;18.10;11.43;;;;;;;;;;4125182;34;20119;-75
2022/03/19 02:07:09;;;;;;;17.50;11.68;;;;;;;;;;4125226;34;20107;-75
2022/03/19 02:09:36;;;;;;;15.85;12.32;;;;;;;;;;4125261;34;20123;-75
2022/03/19 02:12:02;;;;;;;14.70;11.93;;;;;;;;;;4125210;34;20118;-74
2022/03/19 02:14:28;;;;;;;16.35;11.75;;;;;;;;;;4113836;34;20119;-69
2022/03/19 02:16:54;;;;;;;16.20;12.40;;;;;;;;;;4125112;34;20115;-71
2022/03/19 02:19:20;;;;;;;16.87;12.75;;;;;;;;;;4137655;34;20456;-72
2022/03/19 02:21:48;;;;;;;14.32;12.27;;;;;;;;;;4113988;34;20115;-74
2022/03/19 02:27:00;;;;;;;17.17;12.23;;;;;;;;;;4127154;34;20570;-74
2022/03/19 02:29:26;;;;;;;16.10;11.95;;;;;;;;;;4124967;34;20135;-74
2022/03/19 02:31:58;;;;;;;20.62;12.32;;;;;;;;;;4124733;34;20209;-72
2022/03/19 02:34:25;;;;;;;18.02;12.25;;;;;;;;;;4102800;34;20138;-70
2022/03/19 02:36:51;;;;;;;16.10;12.32;;;;;;;;;;4113471;34;20127;-71
2022/03/19 02:39:30;;;;;;;13.60;11.88;;;;;;;;;;4124877;34;20091;-71
2022/03/19 02:41:58;;;;;;;16.70;11.88;;;;;;;;;;4125073;34;20122;-72
2022/03/19 02:44:24;;;;;;;20.90;12.77;;;;;;;;;;4124817;34;20133;-71
2022/03/19 02:46:53;;;;;;;18.25;12.10;;;;;;;;;;4113562;34;20452;-73
2022/03/19 02:49:19;;;;;;;21.90;12.37;;;;;;;;;;4124415;34;20107;-71
2022/03/19 02:51:47;;;;;;;16.90;12.43;;;;;;;;;;4135186;34;20118;-71
2022/03/19 02:54:15;;;;;;;17.73;13.32;;;;;;;;;;4137255;34;20122;-71
2022/03/19 02:56:42;;;;;;;14.23;11.90;;;;;;;;;;4137121;34;20127;-73
2022/03/19 02:59:09;;;;;;;25.30;12.63;;;;;;;;;;4137203;34;20127;-72
2022/03/19 03:01:35;;;;;;;17.52;12.05;;;;;;;;;;4124502;34;20143;-74
2022/03/19 03:04:02;;;;;;;21.27;13.55;;;;;;;;;;4124947;34;20139;-75
2022/03/19 03:06:28;;;;;;;22.42;13.82;;;;;;;;;;4124514;34;20115;-74
2022/03/19 03:08:55;;;;;;;16.45;12.60;;;;;;;;;;4124390;34;20209;-74
2022/03/19 03:11:21;;;;;;;20.98;12.77;;;;;;;;;;4124322;34;20568;-75
2022/03/19 03:13:47;;;;;;;15.95;12.43;;;;;;;;;;4113561;34;20123;-73
2022/03/19 03:16:13;;;;;;;15.15;12.50;;;;;;;;;;4136613;34;20231;-74
2022/03/19 03:18:39;;;;;;;18.02;12.45;;;;;;;;;;4124388;34;20543;-75
2022/03/19 03:21:05;;;;;;;23.65;14.27;;;;;;;;;;4137138;34;20131;-75
2022/03/19 03:23:34;;;;;;;19.50;13.75;;;;;;;;;;4137503;34;20212;-75
2022/03/19 03:26:00;;;;;;;18.70;13.10;;;;;;;;;;4115933;34;20182;-75
2022/03/19 03:28:27;;;;;;;19.40;13.02;;;;;;;;;;4123926;34;20190;-75
2022/03/19 03:30:53;;;;;;;14.70;12.07;;;;;;;;;;4111322;34;20112;-74
2022/03/19 03:33:20;;;;;;;15.98;13.05;;;;;;;;;;4123521;34;20501;-74
2022/03/19 03:35:46;;;;;;;20.48;12.82;;;;;;;;;;4111455;34;20107;-75
2022/03/19 03:38:12;;;;;;;19.92;12.57;;;;;;;;;;4111366;34;20594;-75
2022/03/19 03:40:38;;;;;;;21.12;12.43;;;;;;;;;;4122083;34;20267;-75
2022/03/19 03:43:04;;;;;;;19.98;13.10;;;;;;;;;;4123624;34;20475;-75
2022/03/19 03:45:30;;;;;;;14.77;12.10;;;;;;;;;;4123851;34;20115;-75
2022/03/19 03:47:56;;;;;;;15.77;12.02;;;;;;;;;;4111093;34;20112;-75
2022/03/19 03:50:23;;;;;;;23.52;12.93;;;;;;;;;;4111177;34;20151;-75
2022/03/19 03:52:49;;;;;;;15.75;11.55;;;;;;;;;;4132204;34;20492;-75
2022/03/19 03:55:15;;;;;;;19.20;12.80;;;;;;;;;;4124279;34;20111;-74
2022/03/19 03:57:41;;;;;;;18.40;12.43;;;;;;;;;;4124616;34;20111;-79
2022/03/19 04:00:11;;;;;;;17.77;11.00;;;;;;;;;;4137625;34;20183;-84
2022/03/19 04:02:37;;;;;;;21.98;13.85;;;;;;;;;;4136056;34;20194;-72
2022/03/19 04:05:04;;;;;;;17.02;12.77;;;;;;;;;;4136443;34;20107;-77
2022/03/19 04:07:30;;;;;;;16.52;12.40;;;;;;;;;;4124379;34;20471;-79
2022/03/19 04:09:56;;;;;;;20.12;14.15;;;;;;;;;;4137027;34;20535;-76
2022/03/19 04:12:22;;;;;;;16.45;11.82;;;;;;;;;;4136498;34;20130;-74
2022/03/19 04:14:49;;;;;;;14.63;10.43;;;;;;;;;;4136481;34;20170;-71
2022/03/19 04:17:15;;;;;;;18.92;12.90;;;;;;;;;;4136326;34;20204;-71
2022/03/19 04:19:42;;;;;;;13.65;11.10;;;;;;;;;;4136335;34;20123;-70
2022/03/19 04:22:08;;;;;;;18.27;12.73;;;;;;;;;;4134894;34;20595;-70
2022/03/19 04:24:34;;;;;;;17.20;12.98;;;;;;;;;;4136436;34;20118;-70
2022/03/19 04:27:00;;;;;;;19.02;13.50;;;;;;;;;;4136164;34;20128;-70
2022/03/19 04:29:26;;;;;;;20.92;13.15;;;;;;;;;;4124154;34;20198;-71
2022/03/19 04:31:52;;;;;;;22.20;14.95;;;;;;;;;;4112900;34;20131;-70
2022/03/19 04:34:19;;;;;;;16.30;12.40;;;;;;;;;;4136294;34;20216;-70
2022/03/19 04:36:45;;;;;;;21.80;12.60;;;;;;;;;;4123995;34;20488;-71
2022/03/19 04:39:11;;;;;;;18.35;11.75;;;;;;;;;;4112917;34;20116;-73
2022/03/19 04:41:38;;;;;;;15.65;11.30;;;;;;;;;;4136061;34;20559;-68
2022/03/19 04:44:05;;;;;;;15.43;11.10;;;;;;;;;;4123665;34;20127;-68
2022/03/19 04:46:31;;;;;;;17.50;12.10;;;;;;;;;;4123588;34;20472;-68
2022/03/19 04:48:57;;;;;;;17.40;11.95;;;;;;;;;;4136044;34;20134;-67
2022/03/19 04:51:32;;;;;;;19.60;12.48;;;;;;;;;;4123532;34;20649;-72
2022/03/19 04:53:58;;;;;;;18.95;13.35;;;;;;;;;;4112759;34;20100;-74
2022/03/19 04:56:26;;;;;;;21.90;13.23;;;;;;;;;;4136119;34;20202;-73
2022/03/19 04:58:53;;;;;;;21.87;14.85;;;;;;;;;;4123900;34;20109;-81
2022/03/19 05:01:20;;;;;;;19.08;13.27;;;;;;;;;;4124306;34;20194;-90
2022/03/19 05:03:46;;;;;;;20.25;12.73;;;;;;;;;;4124008;34;20112;-82
2022/03/19 05:06:12;;;;;;;23.12;14.95;;;;;;;;;;4124003;34;20119;-80
2022/03/19 05:08:38;;;;;;;20.90;14.60;;;;;;;;;;4134736;34;20143;-73
2022/03/19 05:11:13;;;;;;;19.67;13.32;;;;;;;;;;4123345;34;20228;-74
2022/03/19 05:13:44;;;;;;;18.70;11.40;;;;;;;;;;4137563;34;20189;-72
2022/03/19 05:16:14;;;;;;;21.33;12.52;;;;;;;;;;4114085;34;20113;-73
2022/03/19 05:18:40;;;;;;;23.35;12.70;;;;;;;;;;4125538;34;20206;-73
2022/03/19 05:21:06;;;;;;;22.80;12.98;;;;;;;;;;4125212;34;20133;-74
2022/03/19 05:23:32;;;;;;;18.37;11.45;;;;;;;;;;4125520;34;20126;-73
2022/03/19 05:25:58;;;;;;;19.90;10.48;;;;;;;;;;4125456;34;20116;-73
2022/03/19 05:28:25;;;;;;;21.00;12.45;;;;;;;;;;4138207;34;20115;-72
2022/03/19 05:30:52;;;;;;;22.60;14.23;;;;;;;;;;4137778;34;20095;-70
2022/03/19 05:33:18;;;;;;;18.60;11.82;;;;;;;;;;4137776;34;20206;-73
2022/03/19 05:35:45;;;;;;;17.80;12.10;;;;;;;;;;4137699;34;20111;-68
2022/03/19 05:38:11;;;;;;;20.02;13.40;;;;;;;;;;4114385;34;20119;-76
2022/03/19 05:40:37;;;;;;;21.48;12.57;;;;;;;;;;4125354;34;20673;-78
2022/03/19 05:43:03;;;;;;;19.77;13.82;;;;;;;;;;4114392;34;20136;-74
2022/03/19 05:45:29;;;;;;;20.50;13.80;;;;;;;;;;4138042;34;20116;-75
2022/03/19 05:47:55;;;;;;;21.85;15.75;;;;;;;;;;4137946;34;20124;-76
2022/03/19 05:50:22;;;;;;;23.45;15.45;;;;;;;;;;4125339;34;20138;-74
2022/03/19 05:52:48;;;;;;;22.25;15.48;;;;;;;;;;4111696;34;20690;-81
2022/03/19 05:55:14;;;;;;;21.27;15.25;;;;;;;;;;4110036;34;20124;-72
2022/03/19 05:57:41;;;;;;;21.80;15.05;;;;;;;;;;4133401;34;20111;-73
2022/03/19 06:00:08;;;;;;;23.00;16.30;;;;;;;;;;4120643;34;20138;-75
2022/03/19 06:02:41;;;;;;;26.58;17.52;;;;;;;;;;4121012;34;20967;-80
2022/03/19 06:05:08;;;;;;;27.98;16.75;;;;;;;;;;4121380;34;20535;-81
2022/03/19 06:07:34;;;;;;;28.17;15.30;;;;;;;;;;4120634;34;20135;-77
2022/03/19 06:10:00;;;;;;;25.33;16.17;;;;;;;;;;4133382;34;20120;-77
2022/03/19 06:12:26;;;;;;;25.23;16.30;;;;;;;;;;4133515;34;20115;-72
2022/03/19 06:14:53;;;;;;;27.50;16.05;;;;;;;;;;4131740;34;20506;-74
2022/03/19 06:17:20;;;;;;;27.98;15.57;;;;;;;;;;4120754;34;20119;-74
2022/03/19 06:19:47;;;;;;;41.90;15.85;;;;;;;;;;4121145;34;20114;-76
2022/03/19 06:22:13;;;;;;;27.05;15.13;;;;;;;;;;4123312;34;20117;-79
2022/03/19 06:24:39;;;;;;;24.65;16.20;;;;;;;;;;4125772;34;20103;-81
2022/03/19 06:27:07;;;;;;;28.98;16.37;;;;;;;;;;4124631;34;20119;-77
2022/03/19 06:29:34;;;;;;;22.48;14.20;;;;;;;;;;4125597;34;20641;-81
2022/03/19 06:32:00;;;;;;;26.45;15.00;;;;;;;;;;4125067;34;20115;-78
2022/03/19 06:34:29;;;;;;;23.40;13.73;;;;;;;;;;4137562;34;20122;-75
2022/03/19 06:39:40;;;;;;;18.35;12.43;;;;;;;;;;4127019;34;20122;-73
2022/03/19 06:42:07;;;;;;;20.90;12.13;;;;;;;;;;4125141;34;20527;-71
2022/03/19 06:44:33;;;;;;;18.08;11.60;;;;;;;;;;4137469;34;20108;-72
2022/03/19 06:46:59;;;;;;;23.80;13.55;;;;;;;;;;4124562;34;20543;-69
2022/03/19 06:49:27;;;;;;;23.95;13.38;;;;;;;;;;4124674;34;20135;-65
2022/03/19 06:51:53;;;;;;;20.48;12.45;;;;;;;;;;4136999;34;20115;-67
2022/03/19 06:54:19;;;;;;;17.85;12.63;;;;;;;;;;4137465;34;20123;-65
2022/03/19 06:56:45;;;;;;;21.98;12.95;;;;;;;;;;4137946;34;20114;-65
2022/03/19 06:59:11;;;;;;;17.15;11.73;;;;;;;;;;4138166;34;20198;-62
2022/03/19 07:01:37;;;;;;;19.02;12.45;;;;;;;;;;4125550;34;20468;-65
2022/03/19 07:04:06;;;;;;;21.27;13.90;;;;;;;;;;4137524;34;20119;-69
2022/03/19 07:06:32;;;;;;;18.98;12.73;;;;;;;;;;4137087;34;20542;-70
2022/03/19 07:08:58;;;;;;;24.17;13.05;;;;;;;;;;4137186;34;20111;-71
2022/03/19 07:11:25;;;;;;;20.50;13.55;;;;;;;;;;4137036;34;20210;-71
2022/03/19 07:13:50;;;;;;;27.30;15.20;;;;;;;;;;4137118;34;20135;-69
2022/03/19 07:16:16;;;;;;;26.10;14.38;;;;;;;;;;4136893;34;20154;-78
2022/03/19 07:18:42;;;;;;;16.85;11.70;;;;;;;;;;4137514;34;20621;-74
2022/03/19 07:21:10;;;;;;;20.05;11.23;;;;;;;;;;4124670;34;20207;-73
2022/03/19 07:23:36;;;;;;;16.35;10.38;;;;;;;;;;4136834;34;20095;-73
2022/03/19 07:26:02;;;;;;;21.25;15.13;;;;;;;;;;4136250;34;20108;-70
2022/03/19 07:28:28;;;;;;;26.30;14.73;;;;;;;;;;4136936;34;20110;-69
2022/03/19 07:30:55;;;;;;;21.67;14.20;;;;;;;;;;4124259;34;20452;-68
2022/03/19 07:33:22;;;;;;;24.77;14.63;;;;;;;;;;4113128;34;20130;-69
2022/03/19 07:35:48;;;;;;;23.60;13.70;;;;;;;;;;4135941;34;20227;-69
2022/03/19 07:38:14;;;;;;;18.23;13.90;;;;;;;;;;4136669;34;20532;-68
2022/03/19 07:43:25;;;;;;;21.33;12.75;;;;;;;;;;4124197;34;20083;-67
2022/03/19 07:45:52;;;;;;;15.93;11.05;;;;;;;;;;4135464;34;20132;-64
2022/03/19 07:48:19;;;;;;;13.73;10.13;;;;;;;;;;4136827;34;20163;-65
2022/03/19 07:50:45;;;;;;;12.18;9.10;;;;;;;;;;4136513;34;20123;-63
2022/03/19 07:53:11;;;;;;;15.23;11.20;;;;;;;;;;4136742;34;20245;-66
2022/03/19 07:55:37;;;;;;;12.68;9.48;;;;;;;;;;4136495;34;20131;-78
2022/03/19 07:58:04;;;;;;;10.40;7.93;;;;;;;;;;4136596;34;20461;-70
2022/03/19 08:00:30;;;;;;;13.27;8.25;;;;;;;;;;4124423;34;20111;-74
2022/03/19 08:02:56;;;;;;;13.07;8.65;;;;;;;;;;4138001;34;20535;-75
2022/03/19 08:05:22;;;;;;;13.70;8.32;;;;;;;;;;4137147;34;20158;-74
2022/03/19 08:07:48;;;;;;;11.18;7.95;;;;;;;;;;4136754;34;20142;-73
2022/03/19 08:10:15;;;;;;;11.90;9.43;;;;;;;;;;4136629;34;20214;-75
2022/03/19 08:12:42;;;;;;;14.77;9.13;;;;;;;;;;4136457;34;20152;-75
2022/03/19 08:15:10;;;;;;;16.60;9.23;;;;;;;;;;4136701;34;20099;-75
2022/03/19 08:17:41;;;;;;;15.10;10.13;;;;;;;;;;4134838;34;20094;-72
2022/03/19 08:20:07;;;;;;;17.42;10.13;;;;;;;;;;4136155;34;20123;-73
2022/03/19 08:22:34;;;;;;;14.25;10.45;;;;;;;;;;4123920;34;20130;-78
2022/03/19 08:25:01;;;;;;;16.98;10.02;;;;;;;;;;4125323;34;20120;-79
2022/03/19 08:27:27;;;;;;;13.85;9.50;;;;;;;;;;4137904;34;20103;-74
2022/03/19 08:29:53;;;;;;;14.13;8.38;;;;;;;;;;4138399;34;20119;-77
2022/03/19 08:32:20;;;;;;;13.65;8.90;;;;;;;;;;4124719;34;20106;-73
2022/03/19 08:34:47;;;;;;;10.40;7.65;;;;;;;;;;4124099;34;20134;-71
2022/03/19 08:37:13;;;;;;;15.00;9.35;;;;;;;;;;4124035;34;20115;-78
2022/03/19 08:42:23;;;;;;;15.15;8.93;;;;;;;;;;4124018;34;20108;-78
2022/03/19 08:44:51;;;;;;;13.45;9.30;;;;;;;;;;4124139;34;20131;-77
2022/03/19 08:47:17;;;;;;;12.98;8.30;;;;;;;;;;4123774;34;20691;-75
2022/03/19 08:49:43;;;;;;;9.05;7.62;;;;;;;;;;4123121;34;20551;-70
2022/03/19 08:52:09;;;;;;;8.43;7.30;;;;;;;;;;4135745;34;20111;-71
2022/03/19 08:54:35;;;;;;;9.20;6.82;;;;;;;;;;4136212;34;20115;-72
2022/03/19 08:57:02;;;;;;;9.77;7.62;;;;;;;;;;4135967;34;20112;-71
2022/03/19 08:59:28;;;;;;;11.10;7.97;;;;;;;;;;4136181;34;20113;-71
2022/03/19 09:01:54;;;;;;;10.93;7.62;;;;;;;;;;4135841;34;20133;-71
2022/03/19 09:04:21;;;;;;;13.15;8.75;;;;;;;;;;4135873;34;20108;-72
2022/03/19 09:06:48;;;;;;;14.95;8.75;;;;;;;;;;4135683;34;20119;-67
2022/03/19 09:09:16;;;;;;;11.18;8.30;;;;;;;;;;4134483;34;20102;-69
2022/03/19 09:11:42;;;;;;;12.55;8.18;;;;;;;;;;4135650;34;20540;-71
2022/03/19 09:14:09;;;;;;;11.10;6.62;;;;;;;;;;4111970;34;20168;-69
2022/03/19 09:16:35;;;;;;;7.45;6.07;;;;;;;;;;4122829;34;20111;-70
2022/03/19 09:19:02;;;;;;;9.35;6.62;;;;;;;;;;4123095;34;20553;-75
2022/03/19 09:21:29;;;;;;;9.98;6.70;;;;;;;;;;4122812;34;20115;-70
2022/03/19 09:23:58;;;;;;;6.32;5.15;;;;;;;;;;4123191;34;20138;-75
2022/03/19 09:26:25;;;;;;;7.95;5.55;;;;;;;;;;4123380;34;20130;-75
2022/03/19 09:28:51;;;;;;;7.18;6.03;;;;;;;;;;4123322;34;20771;-69
2022/03/19 09:31:17;;;;;;;10.65;5.03;;;;;;;;;;4135748;34;20127;-68
2022/03/19 09:33:45;;;;;;;9.75;4.97;;;;;;;;;;4135682;34;20127;-69
2022/03/19 09:36:12;;;;;;;6.62;4.97;;;;;;;;;;4135593;34;20119;-71
2022/03/19 09:38:38;;;;;;;7.35;5.18;;;;;;;;;;4112054;34;20174;-69
2022/03/19 09:41:04;;;;;;;12.23;5.70;;;;;;;;;;4122881;34;20111;-69
2022/03/19 09:43:30;;;;;;;7.68;5.55;;;;;;;;;;4135789;34;20119;-69
2022/03/19 09:45:56;;;;;;;7.35;4.80;;;;;;;;;;4122903;34;20539;-68
2022/03/19 09:48:22;;;;;;;7.10;4.65;;;;;;;;;;4134103;34;20105;-68
2022/03/19 09:50:56;;;;;;;8.77;4.93;;;;;;;;;;4135655;34;20103;-70
2022/03/19 09:53:23;;;;;;;7.62;4.65;;;;;;;;;;4123045;34;20115;-69
2022/03/19 09:55:50;;;;;;;8.48;5.30;;;;;;;;;;4135218;34;20135;-69
2022/03/19 09:58:16;;;;;;;7.20;5.05;;;;;;;;;;4135551;34;20112;-73
2022/03/19 10:00:43;;;;;;;8.15;5.35;;;;;;;;;;4135788;34;20103;-76
2022/03/19 10:03:13;;;;;;;9.93;5.25;;;;;;;;;;4137758;34;20115;-76
2022/03/19 10:08:43;;;;;;;7.57;5.30;;;;;;;;;;4137568;34;20512;-75
2022/03/19 10:11:15;;;;;;;7.25;5.40;;;;;;;;;;4137504;34;20487;-75
2022/03/19 10:13:46;;;;;;;13.45;6.55;;;;;;;;;;4137372;34;20633;-75
2022/03/19 10:16:25;;;;;;;9.50;6.00;;;;;;;;;;4137447;34;20115;-74
2022/03/19 10:19:01;;;;;;;9.50;6.03;;;;;;;;;;4137836;34;20222;-75
2022/03/19 10:21:29;;;;;;;8.95;6.40;;;;;;;;;;4137473;34;20208;-73
2022/03/19 10:23:59;;;;;;;8.15;5.90;;;;;;;;;;4125015;34;20115;-73
2022/03/19 10:26:34;;;;;;;8.52;5.87;;;;;;;;;;4138167;34;20114;-74
2022/03/19 10:29:11;;;;;;;8.95;6.00;;;;;;;;;;4137770;34;20098;-74
2022/03/19 10:31:39;;;;;;;7.07;5.57;;;;;;;;;;4137772;34;20198;-71
2022/03/19 10:34:07;;;;;;;14.98;6.55;;;;;;;;;;4124719;34;20959;-65
2022/03/19 10:36:35;;;;;;;8.63;5.85;;;;;;;;;;4124617;34;20536;-66
2022/03/19 10:39:11;;;;;;;7.25;6.43;;;;;;;;;;4137285;34;20117;-64
2022/03/19 10:41:37;;;;;;;9.07;7.85;;;;;;;;;;4124830;34;20127;-68
2022/03/19 10:44:29;;;;;;;12.10;9.52;;;;;;;;;;4137125;34;20127;-69
2022/03/19 10:46:59;;;;;;;10.15;7.43;;;;;;;;;;4134607;34;20203;-70
2022/03/19 10:49:27;;;;;;;9.77;7.18;;;;;;;;;;4113915;34;20119;-68
2022/03/19 10:51:57;;;;;;;13.70;7.15;;;;;;;;;;4136761;34;20131;-68
2022/03/19 10:54:24;;;;;;;8.65;6.50;;;;;;;;;;4137121;34;20131;-68
2022/03/19 10:56:51;;;;;;;8.68;6.12;;;;;;;;;;4135628;34;20135;-69
2022/03/19 10:59:17;;;;;;;8.75;6.15;;;;;;;;;;4124679;34;20099;-65
2022/03/19 11:01:44;;;;;;;12.88;7.28;;;;;;;;;;4137072;34;20132;-67
2022/03/19 11:04:11;;;;;;;8.75;7.07;;;;;;;;;;4113378;34;20123;-67
2022/03/19 11:06:39;;;;;;;10.27;7.80;;;;;;;;;;4124732;34;20123;-67
2022/03/19 11:09:09;;;;;;;11.05;7.50;;;;;;;;;;4124372;34;20200;-70
2022/03/19 11:11:59;;;;;;;12.60;8.15;;;;;;;;;;4124462;34;20507;-65
2022/03/19 11:14:28;;;;;;;10.55;7.78;;;;;;;;;;4130129;34;20119;-65
2022/03/19 11:17:24;;;;;;;10.73;7.85;;;;;;;;;;4136614;34;20200;-65
2022/03/19 11:20:01;;;;;;;11.23;8.47;;;;;;;;;;4136773;34;20449;-65
2022/03/19 11:22:29;;;;;;;11.82;8.50;;;;;;;;;;4136855;34;20706;-66
2022/03/19 11:25:09;;;;;;;13.23;9.43;;;;;;;;;;4136741;34;20162;-65
2022/03/19 11:27:41;;;;;;;9.25;7.28;;;;;;;;;;4136857;34;20209;-64
2022/03/19 11:30:18;;;;;;;11.50;7.37;;;;;;;;;;4124287;34;20150;-64
2022/03/19 11:33:04;;;;;;;8.85;6.65;;;;;;;;;;4136784;34;20468;-65
2022/03/19 11:35:30;;;;;;;12.37;7.15;;;;;;;;;;4124513;34;20204;-65
2022/03/19 11:38:00;;;;;;;11.23;7.57;;;;;;;;;;4136542;34;20220;-64
2022/03/19 11:40:29;;;;;;;11.12;7.47;;;;;;;;;;4136679;34;20216;-69
2022/03/19 11:43:00;;;;;;;14.55;8.40;;;;;;;;;;4113183;34;20541;-66
2022/03/19 11:45:27;;;;;;;10.57;8.02;;;;;;;;;;4136640;34;20110;-67
2022/03/19 11:47:53;;;;;;;9.88;7.78;;;;;;;;;;4136542;34;20103;-66
2022/03/19 11:50:24;;;;;;;10.40;8.77;;;;;;;;;;4136552;34;20114;-67
2022/03/19 11:52:53;;;;;;;12.02;7.80;;;;;;;;;;4123949;34;20103;-67
2022/03/19 11:55:20;;;;;;;13.00;8.38;;;;;;;;;;4136612;34;20131;-65
2022/03/19 11:57:45;;;;;;;12.95;9.75;;;;;;;;;;4123922;34;20111;-64
2022/03/19 12:00:19;;;;;;;13.05;9.13;;;;;;;;;;4136395;34;20186;-65
2022/03/19 12:03:08;;;;;;;10.20;8.20;;;;;;;;;;4136558;34;20104;-64
2022/03/19 12:05:40;;;;;;;10.32;8.65;;;;;;;;;;4136503;34;20102;-65
2022/03/19 12:08:08;;;;;;;11.10;8.35;;;;;;;;;;4136314;34;20138;-66
2022/03/19 12:10:39;;;;;;;9.10;7.28;;;;;;;;;;4136393;34;20554;-65
2022/03/19 12:13:36;;;;;;;9.82;6.68;;;;;;;;;;4124245;34;20134;-64
2022/03/19 12:16:04;;;;;;;13.40;7.62;;;;;;;;;;4123943;34;20119;-67
2022/03/19 12:18:39;;;;;;;12.05;6.82;;;;;;;;;;4134731;34;20200;-70
2022/03/19 12:21:11;;;;;;;9.95;6.97;;;;;;;;;;4123886;34;20106;-65
2022/03/19 12:23:42;;;;;;;8.98;7.05;;;;;;;;;;4121883;34;20138;-67
2022/03/19 12:26:10;;;;;;;8.68;6.03;;;;;;;;;;4135037;34;20100;-68
2022/03/19 12:28:36;;;;;;;9.02;6.50;;;;;;;;;;4120825;34;20463;-68
2022/03/19 12:31:14;;;;;;;8.88;6.03;;;;;;;;;;4122728;34;20151;-67
2022/03/19 12:33:40;;;;;;;8.65;6.35;;;;;;;;;;4130137;34;20134;-67
2022/03/19 12:36:19;;;;;;;11.00;7.65;;;;;;;;;;4136349;34;20475;-65
2022/03/19 12:38:46;;;;;;;10.30;6.93;;;;;;;;;;4136159;34;20124;-66
2022/03/19 12:41:31;;;;;;;13.40;7.20;;;;;;;;;;4136287;34;20134;-65
2022/03/19 12:44:01;;;;;;;8.40;7.50;;;;;;;;;;4135988;34;20099;-67
2022/03/19 12:46:32;;;;;;;9.50;7.95;;;;;;;;;;4136091;34;20133;-65
2022/03/19 12:49:03;;;;;;;11.48;7.68;;;;;;;;;;4136039;34;20112;-66
2022/03/19 12:51:29;;;;;;;9.43;7.47;;;;;;;;;;4123541;34;20484;-67
2022/03/19 12:53:56;;;;;;;13.18;9.20;;;;;;;;;;4135934;34;20648;-67
2022/03/19 12:56:24;;;;;;;13.73;10.18;;;;;;;;;;4123662;34;20127;-64
2022/03/19 12:58:53;;;;;;;18.10;11.90;;;;;;;;;;4135902;34;20183;-65
2022/03/19 13:01:29;;;;;;;18.02;11.32;;;;;;;;;;4136157;34;20118;-65
2022/03/19 13:04:03;;;;;;;;;;;;;;;;;;4136175;34;20712;-64
2022/03/19 13:06:33;;;;;;;12.15;8.57;;;;;;;;;;4136135;34;20070;-66
2022/03/19 13:08:59;;;;;;;16.08;8.48;;;;;;;;;;4119678;34;20099;-66
2022/03/19 13:11:26;;;;;;;10.10;7.55;;;;;;;;;;4100713;34;20437;-69
2022/03/19 13:13:52;;;;;;;8.77;7.57;;;;;;;;;;4123246;34;20132;-75
2022/03/19 13:16:29;;;;;;;10.07;8.00;;;;;;;;;;4109077;34;20099;-69
2022/03/19 13:19:05;;;;;;;12.98;8.35;;;;;;;;;;4110146;34;20137;-71
2022/03/19 13:21:31;;;;;;;;;;;;;;;;;;4110466;34;20112;-67
2022/03/19 13:23:59;;;;;;;11.93;8.00;;;;;;;;;;4120762;34;20030;-73
2022/03/19 13:26:29;;;;;;;12.57;9.05;;;;;;;;;;4121987;34;20127;-66
2022/03/19 13:28:59;;;;;;;16.23;9.45;;;;;;;;;;4123375;34;20231;-65
2022/03/19 13:31:25;;;;;;;10.63;8.93;;;;;;;;;;4123230;34;20591;-63
2022/03/19 13:33:51;;;;;;;12.20;8.68;;;;;;;;;;4133109;34;20134;-64
2022/03/19 13:36:20;;;;;;;9.80;8.32;;;;;;;;;;4132965;34;20147;-65
2022/03/19 13:38:54;;;;;;;10.80;8.23;;;;;;;;;;4120725;34;20230;-64
2022/03/19 13:41:20;;;;;;;11.70;8.52;;;;;;;;;;4122185;34;20122;-65
2022/03/19 13:43:46;;;;;;;13.50;8.25;;;;;;;;;;4124673;34;20079;-64
2022/03/19 13:46:30;;;;;;;12.85;9.55;;;;;;;;;;4125149;34;20214;-66
2022/03/19 13:49:16;;;;;;;12.75;9.57;;;;;;;;;;4137446;34;20135;-71
2022/03/19 13:51:46;;;;;;;14.95;9.48;;;;;;;;;;4125501;34;20125;-69
2022/03/19 13:54:13;;;;;;;12.98;10.27;;;;;;;;;;4124969;34;20787;-71
2022/03/19 13:56:53;;;;;;;12.48;9.30;;;;;;;;;;4124859;34;20195;-70
2022/03/19 13:59:33;;;;;;;13.98;8.80;;;;;;;;;;4124979;34;20213;-67
2022/03/19 14:02:01;;;;;;;11.25;8.15;;;;;;;;;;4125945;34;20114;-70
2022/03/19 14:04:27;;;;;;;10.88;8.80;;;;;;;;;;4124939;34;20540;-70
2022/03/19 14:06:53;;;;;;;13.10;8.80;;;;;;;;;;4125265;34;20126;-71
2022/03/19 14:09:20;;;;;;;11.35;8.48;;;;;;;;;;4137294;34;20118;-67
2022/03/19 14:11:48;;;;;;;17.90;8.32;;;;;;;;;;4124933;34;20307;-71
2022/03/19 14:14:18;;;;;;;11.30;9.00;;;;;;;;;;4124166;34;20120;-71
2022/03/19 14:16:55;;;;;;;15.98;9.95;;;;;;;;;;4110511;34;20117;-71
2022/03/19 14:19:22;;;;;;;12.52;9.25;;;;;;;;;;4122206;34;20135;-71
2022/03/19 14:21:48;;;;;;;14.18;9.90;;;;;;;;;;4112955;34;20460;-70
2022/03/19 14:24:15;;;;;;;16.12;11.45;;;;;;;;;;4109204;34;20531;-70
2022/03/19 14:26:44;;;;;;;12.25;9.50;;;;;;;;;;4099617;34;20227;-69
2022/03/19 14:29:10;;;;;;;12.40;10.90;;;;;;;;;;4123559;34;20130;-69
2022/03/19 14:31:36;;;;;;;12.25;9.13;;;;;;;;;;4124115;34;20102;-70
2022/03/19 14:34:03;;;;;;;12.70;8.90;;;;;;;;;;4118400;34;20123;-70
2022/03/19 14:36:29;;;;;;;12.48;8.80;;;;;;;;;;4136686;34;20123;-71
2022/03/19 14:38:55;;;;;;;13.73;9.82;;;;;;;;;;4136731;34;20103;-71
2022/03/19 14:41:28;;;;;;;18.45;11.23;;;;;;;;;;4124811;34;20111;-70
2022/03/19 14:43:54;;;;;;;14.63;11.32;;;;;;;;;;4110854;34;20170;-71
2022/03/19 14:46:24;;;;;;;16.77;13.55;;;;;;;;;;4110856;34;20127;-71
2022/03/19 14:48:51;;;;;;;17.40;12.55;;;;;;;;;;4123305;34;20522;-69
2022/03/19 14:51:17;;;;;;;15.82;11.32;;;;;;;;;;4111371;34;20134;-71
2022/03/19 14:53:44;;;;;;;12.75;9.63;;;;;;;;;;4113696;34;20104;-70
2022/03/19 14:56:12;;;;;;;19.73;9.95;;;;;;;;;;4110947;34;20132;-70
2022/03/19 14:58:39;;;;;;;14.60;10.15;;;;;;;;;;4116065;34;20123;-70
2022/03/19 15:01:06;;;;;;;11.68;9.43;;;;;;;;;;4122340;34;20119;-72
2022/03/19 15:03:32;;;;;;;14.32;10.38;;;;;;;;;;4129634;34;20206;-71
2022/03/19 15:05:59;;;;;;;14.93;10.65;;;;;;;;;;4124747;34;20511;-71